Terminal Aerodrome Forecast
Issued by NWS

Home | Current Version | Previous Version | Text Only | Print | Product List | Glossary On
Versions: 1 2 3 4 5 6 7 8 9 10 11 12 13 14 15 16
922
FTAK31 PAJN 302328
TAFAKT
TAF
PAKT 302328Z 3100/3124 13015KT P6SM VCSH BKN035 OVC050
      WS020/15030KT
      TEMPO 3100/3104 13015G25KT 5SM -SHRA BR BKN025 OVC035
     FM310600 14015G25KT 6SM -RA BR BKN025 OVC035 WS020/16040KT
     FM310900 14020G30KT 3SM -RA BR BKN015 OVC025 WS020/15045KT
     FM312100 16015G25KT 5SM -RA BR BKN025 OVC035
      AMD LTD TO CLD VIS AND WIND 3106/3115=

USA.gov is the U.S. government's official web portal to all federal, state and local government web resources and services.